sensor_id;sensor_type;location;lat;lon;timestamp;P1;durP1;ratioP1;P2;durP2;ratioP2
3343;SDS011;1685;53.104;8.228;2023-05-10T00:01:15;22.13;;;17.27;;
3343;SDS011;1685;53.104;8.228;2023-05-10T00:03:42;21.23;;;16.53;;
3343;SDS011;1685;53.104;8.228;2023-05-10T00:06:09;25.53;;;18.70;;
3343;SDS011;1685;53.104;8.228;2023-05-10T00:08:37;22.03;;;17.53;;
3343;SDS011;1685;53.104;8.228;2023-05-10T00:11:04;24.63;;;17.97;;
3343;SDS011;1685;53.104;8.228;2023-05-10T00:13:31;25.03;;;18.83;;
3343;SDS011;1685;53.104;8.228;2023-05-10T00:15:59;24.97;;;18.90;;
3343;SDS011;1685;53.104;8.228;2023-05-10T00:18:26;22.53;;;17.23;;
3343;SDS011;1685;53.104;8.228;2023-05-10T00:20:53;20.73;;;17.07;;
3343;SDS011;1685;53.104;8.228;2023-05-10T00:23:20;21.63;;;17.13;;
3343;SDS011;1685;53.104;8.228;2023-05-10T00:25:47;22.87;;;16.77;;
3343;SDS011;1685;53.104;8.228;2023-05-10T00:28:14;22.53;;;16.50;;
3343;SDS011;1685;53.104;8.228;2023-05-10T00:30:41;27.30;;;17.27;;
3343;SDS011;1685;53.104;8.228;2023-05-10T00:33:10;26.70;;;17.00;;
3343;SDS011;1685;53.104;8.228;2023-05-10T00:35:37;27.57;;;19.93;;
3343;SDS011;1685;53.104;8.228;2023-05-10T00:38:04;22.93;;;18.57;;
3343;SDS011;1685;53.104;8.228;2023-05-10T00:40:31;25.90;;;18.33;;
3343;SDS011;1685;53.104;8.228;2023-05-10T00:42:58;19.23;;;14.93;;
3343;SDS011;1685;53.104;8.228;2023-05-10T00:45:26;19.10;;;14.40;;
3343;SDS011;1685;53.104;8.228;2023-05-10T00:47:53;17.20;;;14.50;;
3343;SDS011;1685;53.104;8.228;2023-05-10T00:50:22;19.03;;;14.10;;
3343;SDS011;1685;53.104;8.228;2023-05-10T00:52:49;17.10;;;13.70;;
3343;SDS011;1685;53.104;8.228;2023-05-10T00:55:17;20.23;;;13.83;;
3343;SDS011;1685;53.104;8.228;2023-05-10T00:57:44;16.90;;;13.50;;
3343;SDS011;1685;53.104;8.228;2023-05-10T01:00:12;14.70;;;12.30;;
3343;SDS011;1685;53.104;8.228;2023-05-10T01:02:42;21.33;;;14.97;;
3343;SDS011;1685;53.104;8.228;2023-05-10T01:05:10;16.47;;;13.80;;
3343;SDS011;1685;53.104;8.228;2023-05-10T01:07:38;18.60;;;15.20;;
3343;SDS011;1685;53.104;8.228;2023-05-10T01:10:06;22.20;;;15.93;;
3343;SDS011;1685;53.104;8.228;2023-05-10T01:12:34;19.00;;;15.20;;
3343;SDS011;1685;53.104;8.228;2023-05-10T01:15:03;17.77;;;14.93;;
3343;SDS011;1685;53.104;8.228;2023-05-10T01:17:31;19.50;;;14.80;;
3343;SDS011;1685;53.104;8.228;2023-05-10T01:19:59;18.13;;;13.43;;
3343;SDS011;1685;53.104;8.228;2023-05-10T01:22:36;14.83;;;11.80;;
3343;SDS011;1685;53.104;8.228;2023-05-10T01:25:33;15.50;;;12.40;;
3343;SDS011;1685;53.104;8.228;2023-05-10T01:28:39;17.43;;;13.20;;
3343;SDS011;1685;53.104;8.228;2023-05-10T01:31:18;22.00;;;16.17;;
3343;SDS011;1685;53.104;8.228;2023-05-10T01:34:05;19.93;;;14.10;;
3343;SDS011;1685;53.104;8.228;2023-05-10T01:36:37;17.50;;;14.30;;
3343;SDS011;1685;53.104;8.228;2023-05-10T01:39:11;18.93;;;15.20;;
3343;SDS011;1685;53.104;8.228;2023-05-10T01:41:43;23.47;;;16.60;;
3343;SDS011;1685;53.104;8.228;2023-05-10T01:44:21;16.60;;;13.50;;
3343;SDS011;1685;53.104;8.228;2023-05-10T01:46:57;17.47;;;13.70;;
3343;SDS011;1685;53.104;8.228;2023-05-10T01:49:34;17.03;;;13.40;;
3343;SDS011;1685;53.104;8.228;2023-05-10T01:52:06;17.10;;;13.13;;
3343;SDS011;1685;53.104;8.228;2023-05-10T01:54:36;14.87;;;12.00;;
3343;SDS011;1685;53.104;8.228;2023-05-10T01:57:07;14.80;;;13.20;;
3343;SDS011;1685;53.104;8.228;2023-05-10T01:59:37;17.30;;;14.40;;
3343;SDS011;1685;53.104;8.228;2023-05-10T02:02:06;15.30;;;13.13;;
3343;SDS011;1685;53.104;8.228;2023-05-10T02:04:38;18.13;;;14.00;;
3343;SDS011;1685;53.104;8.228;2023-05-10T02:07:06;25.73;;;14.33;;
3343;SDS011;1685;53.104;8.228;2023-05-10T02:09:34;20.37;;;14.73;;
3343;SDS011;1685;53.104;8.228;2023-05-10T02:12:02;23.43;;;17.33;;
3343;SDS011;1685;53.104;8.228;2023-05-10T02:14:32;21.60;;;15.97;;
3343;SDS011;1685;53.104;8.228;2023-05-10T02:17:01;19.30;;;15.70;;
3343;SDS011;1685;53.104;8.228;2023-05-10T02:19:29;23.73;;;15.37;;
3343;SDS011;1685;53.104;8.228;2023-05-10T02:21:59;16.60;;;13.07;;
3343;SDS011;1685;53.104;8.228;2023-05-10T02:24:27;19.37;;;14.63;;
3343;SDS011;1685;53.104;8.228;2023-05-10T02:26:55;18.77;;;14.53;;
3343;SDS011;1685;53.104;8.228;2023-05-10T02:29:22;19.73;;;14.93;;
3343;SDS011;1685;53.104;8.228;2023-05-10T02:31:51;18.50;;;14.47;;
3343;SDS011;1685;53.104;8.228;2023-05-10T02:34:20;18.90;;;14.50;;
3343;SDS011;1685;53.104;8.228;2023-05-10T02:36:48;20.10;;;15.37;;
3343;SDS011;1685;53.104;8.228;2023-05-10T02:39:18;17.83;;;14.00;;
3343;SDS011;1685;53.104;8.228;2023-05-10T02:41:45;19.63;;;14.83;;
3343;SDS011;1685;53.104;8.228;2023-05-10T02:44:14;17.10;;;12.67;;
3343;SDS011;1685;53.104;8.228;2023-05-10T02:46:43;14.53;;;12.73;;
3343;SDS011;1685;53.104;8.228;2023-05-10T02:49:10;18.27;;;13.93;;
3343;SDS011;1685;53.104;8.228;2023-05-10T02:51:40;16.10;;;13.40;;
3343;SDS011;1685;53.104;8.228;2023-05-10T02:54:10;15.00;;;12.73;;
3343;SDS011;1685;53.104;8.228;2023-05-10T02:56:42;18.13;;;13.00;;
3343;SDS011;1685;53.104;8.228;2023-05-10T02:59:13;16.97;;;13.17;;
3343;SDS011;1685;53.104;8.228;2023-05-10T03:01:40;16.00;;;12.53;;
3343;SDS011;1685;53.104;8.228;2023-05-10T03:04:07;17.07;;;12.37;;
3343;SDS011;1685;53.104;8.228;2023-05-10T03:06:34;16.43;;;12.50;;
3343;SDS011;1685;53.104;8.228;2023-05-10T03:09:01;16.17;;;12.87;;
3343;SDS011;1685;53.104;8.228;2023-05-10T03:11:32;22.00;;;16.70;;
3343;SDS011;1685;53.104;8.228;2023-05-10T03:14:16;15.00;;;12.50;;
3343;SDS011;1685;53.104;8.228;2023-05-10T03:16:55;16.83;;;12.73;;
3343;SDS011;1685;53.104;8.228;2023-05-10T03:19:27;18.17;;;13.30;;
3343;SDS011;1685;53.104;8.228;2023-05-10T03:21:59;20.73;;;13.43;;
3343;SDS011;1685;53.104;8.228;2023-05-10T03:24:30;16.53;;;12.77;;
3343;SDS011;1685;53.104;8.228;2023-05-10T03:27:01;15.23;;;12.80;;
3343;SDS011;1685;53.104;8.228;2023-05-10T03:29:29;19.00;;;15.00;;
3343;SDS011;1685;53.104;8.228;2023-05-10T03:31:57;19.60;;;14.33;;
3343;SDS011;1685;53.104;8.228;2023-05-10T03:34:25;21.40;;;13.33;;
3343;SDS011;1685;53.104;8.228;2023-05-10T03:36:52;17.70;;;13.90;;
3343;SDS011;1685;53.104;8.228;2023-05-10T03:39:19;15.40;;;12.70;;
3343;SDS011;1685;53.104;8.228;2023-05-10T03:41:46;17.33;;;13.10;;
3343;SDS011;1685;53.104;8.228;2023-05-10T03:44:15;14.30;;;12.53;;
3343;SDS011;1685;53.104;8.228;2023-05-10T03:46:42;18.30;;;13.40;;
3343;SDS011;1685;53.104;8.228;2023-05-10T03:49:09;16.00;;;12.67;;
3343;SDS011;1685;53.104;8.228;2023-05-10T03:51:36;16.73;;;13.57;;
3343;SDS011;1685;53.104;8.228;2023-05-10T03:54:03;15.13;;;12.13;;
3343;SDS011;1685;53.104;8.228;2023-05-10T03:56:30;11.40;;;10.20;;
3343;SDS011;1685;53.104;8.228;2023-05-10T03:58:57;9.20;;;7.43;;
3343;SDS011;1685;53.104;8.228;2023-05-10T04:01:26;9.20;;;7.47;;
3343;SDS011;1685;53.104;8.228;2023-05-10T04:03:52;8.30;;;6.10;;
3343;SDS011;1685;53.104;8.228;2023-05-10T04:06:19;7.67;;;6.47;;
3343;SDS011;1685;53.104;8.228;2023-05-10T04:08:46;7.37;;;6.63;;
3343;SDS011;1685;53.104;8.228;2023-05-10T04:11:13;7.27;;;6.40;;
3343;SDS011;1685;53.104;8.228;2023-05-10T04:13:41;8.93;;;6.50;;
3343;SDS011;1685;53.104;8.228;2023-05-10T04:16:08;7.00;;;6.30;;
3343;SDS011;1685;53.104;8.228;2023-05-10T04:18:37;8.30;;;6.30;;
3343;SDS011;1685;53.104;8.228;2023-05-10T04:21:04;7.70;;;6.00;;
3343;SDS011;1685;53.104;8.228;2023-05-10T04:23:31;9.23;;;5.77;;
3343;SDS011;1685;53.104;8.228;2023-05-10T04:25:59;7.13;;;5.90;;
3343;SDS011;1685;53.104;8.228;2023-05-10T04:28:26;8.10;;;5.90;;
3343;SDS011;1685;53.104;8.228;2023-05-10T04:30:59;8.03;;;6.50;;
3343;SDS011;1685;53.104;8.228;2023-05-10T04:33:27;9.37;;;5.80;;
3343;SDS011;1685;53.104;8.228;2023-05-10T04:35:55;8.80;;;6.73;;
3343;SDS011;1685;53.104;8.228;2023-05-10T04:38:22;9.23;;;6.90;;
3343;SDS011;1685;53.104;8.228;2023-05-10T04:40:49;8.90;;;6.63;;
3343;SDS011;1685;53.104;8.228;2023-05-10T04:43:16;8.60;;;6.13;;
3343;SDS011;1685;53.104;8.228;2023-05-10T04:45:43;10.87;;;7.30;;
3343;SDS011;1685;53.104;8.228;2023-05-10T04:48:10;9.33;;;6.60;;
3343;SDS011;1685;53.104;8.228;2023-05-10T04:50:38;10.20;;;7.47;;
3343;SDS011;1685;53.104;8.228;2023-05-10T04:53:06;11.53;;;7.33;;
3343;SDS011;1685;53.104;8.228;2023-05-10T04:55:33;9.17;;;6.50;;
3343;SDS011;1685;53.104;8.228;2023-05-10T04:58:00;11.87;;;8.03;;
3343;SDS011;1685;53.104;8.228;2023-05-10T05:00:27;10.77;;;7.90;;
3343;SDS011;1685;53.104;8.228;2023-05-10T05:02:55;9.87;;;6.80;;
3343;SDS011;1685;53.104;8.228;2023-05-10T05:05:22;10.90;;;7.77;;
3343;SDS011;1685;53.104;8.228;2023-05-10T05:07:49;8.97;;;6.27;;
3343;SDS011;1685;53.104;8.228;2023-05-10T05:10:17;9.40;;;7.07;;
3343;SDS011;1685;53.104;8.228;2023-05-10T05:12:44;13.50;;;6.87;;
3343;SDS011;1685;53.104;8.228;2023-05-10T05:15:11;8.23;;;6.10;;
3343;SDS011;1685;53.104;8.228;2023-05-10T05:17:40;7.70;;;6.90;;
3343;SDS011;1685;53.104;8.228;2023-05-10T05:20:07;8.17;;;6.60;;
3343;SDS011;1685;53.104;8.228;2023-05-10T05:22:35;8.37;;;6.90;;
3343;SDS011;1685;53.104;8.228;2023-05-10T05:25:02;7.33;;;6.30;;
3343;SDS011;1685;53.104;8.228;2023-05-10T05:27:31;9.60;;;7.40;;
3343;SDS011;1685;53.104;8.228;2023-05-10T05:29:58;9.07;;;7.40;;
3343;SDS011;1685;53.104;8.228;2023-05-10T05:32:25;7.73;;;6.53;;
3343;SDS011;1685;53.104;8.228;2023-05-10T05:34:52;8.07;;;7.27;;
3343;SDS011;1685;53.104;8.228;2023-05-10T05:37:19;10.17;;;6.30;;
3343;SDS011;1685;53.104;8.228;2023-05-10T05:39:47;8.60;;;7.20;;
3343;SDS011;1685;53.104;8.228;2023-05-10T05:42:14;10.10;;;7.80;;
3343;SDS011;1685;53.104;8.228;2023-05-10T05:44:45;7.43;;;5.97;;
3343;SDS011;1685;53.104;8.228;2023-05-10T05:47:11;9.60;;;7.30;;
3343;SDS011;1685;53.104;8.228;2023-05-10T05:49:39;9.87;;;7.63;;
3343;SDS011;1685;53.104;8.228;2023-05-10T05:52:06;8.20;;;6.73;;
3343;SDS011;1685;53.104;8.228;2023-05-10T05:54:33;12.80;;;6.77;;
3343;SDS011;1685;53.104;8.228;2023-05-10T05:57:00;11.00;;;7.37;;
3343;SDS011;1685;53.104;8.228;2023-05-10T05:59:27;8.13;;;7.20;;
3343;SDS011;1685;53.104;8.228;2023-05-10T06:01:56;12.27;;;8.13;;
3343;SDS011;1685;53.104;8.228;2023-05-10T06:04:23;13.33;;;9.77;;
3343;SDS011;1685;53.104;8.228;2023-05-10T06:06:50;11.87;;;8.50;;
3343;SDS011;1685;53.104;8.228;2023-05-10T06:09:18;10.87;;;8.70;;
3343;SDS011;1685;53.104;8.228;2023-05-10T06:11:45;9.97;;;8.07;;
3343;SDS011;1685;53.104;8.228;2023-05-10T06:14:12;15.97;;;8.93;;
3343;SDS011;1685;53.104;8.228;2023-05-10T06:16:39;13.30;;;9.97;;
3343;SDS011;1685;53.104;8.228;2023-05-10T06:19:08;14.83;;;9.13;;
3343;SDS011;1685;53.104;8.228;2023-05-10T06:21:34;15.10;;;10.33;;
3343;SDS011;1685;53.104;8.228;2023-05-10T06:24:02;11.77;;;8.57;;
3343;SDS011;1685;53.104;8.228;2023-05-10T06:26:29;14.73;;;9.80;;
3343;SDS011;1685;53.104;8.228;2023-05-10T06:28:56;12.93;;;9.37;;
3343;SDS011;1685;53.104;8.228;2023-05-10T06:31:23;10.93;;;8.37;;
3343;SDS011;1685;53.104;8.228;2023-05-10T06:33:50;10.47;;;8.30;;
3343;SDS011;1685;53.104;8.228;2023-05-10T06:36:19;16.03;;;10.50;;
3343;SDS011;1685;53.104;8.228;2023-05-10T06:38:47;14.80;;;9.97;;
3343;SDS011;1685;53.104;8.228;2023-05-10T06:41:14;13.53;;;9.43;;
3343;SDS011;1685;53.104;8.228;2023-05-10T06:43:41;13.73;;;9.83;;
3343;SDS011;1685;53.104;8.228;2023-05-10T06:46:08;16.17;;;10.53;;
3343;SDS011;1685;53.104;8.228;2023-05-10T06:48:35;16.60;;;11.30;;
3343;SDS011;1685;53.104;8.228;2023-05-10T06:51:02;15.53;;;10.77;;
3343;SDS011;1685;53.104;8.228;2023-05-10T06:53:31;13.93;;;10.10;;
3343;SDS011;1685;53.104;8.228;2023-05-10T06:55:58;16.03;;;10.73;;
3343;SDS011;1685;53.104;8.228;2023-05-10T06:58:25;16.80;;;10.93;;
3343;SDS011;1685;53.104;8.228;2023-05-10T07:00:52;13.70;;;9.70;;
3343;SDS011;1685;53.104;8.228;2023-05-10T07:03:20;13.17;;;9.60;;
3343;SDS011;1685;53.104;8.228;2023-05-10T07:05:47;13.63;;;9.50;;
3343;SDS011;1685;53.104;8.228;2023-05-10T07:08:14;14.17;;;9.87;;
3343;SDS011;1685;53.104;8.228;2023-05-10T07:10:42;12.53;;;9.90;;
3343;SDS011;1685;53.104;8.228;2023-05-10T07:13:09;13.93;;;9.70;;
3343;SDS011;1685;53.104;8.228;2023-05-10T07:15:36;16.50;;;10.47;;
3343;SDS011;1685;53.104;8.228;2023-05-10T07:18:03;13.03;;;10.10;;
3343;SDS011;1685;53.104;8.228;2023-05-10T07:20:31;14.30;;;10.13;;
3343;SDS011;1685;53.104;8.228;2023-05-10T07:22:58;14.40;;;9.53;;
3343;SDS011;1685;53.104;8.228;2023-05-10T07:25:25;14.77;;;10.13;;
3343;SDS011;1685;53.104;8.228;2023-05-10T07:27:54;12.77;;;9.90;;
3343;SDS011;1685;53.104;8.228;2023-05-10T07:30:20;14.90;;;10.60;;
3343;SDS011;1685;53.104;8.228;2023-05-10T07:32:47;14.87;;;10.27;;
3343;SDS011;1685;53.104;8.228;2023-05-10T07:35:14;14.70;;;10.10;;
3343;SDS011;1685;53.104;8.228;2023-05-10T07:37:42;16.67;;;10.77;;
3343;SDS011;1685;53.104;8.228;2023-05-10T07:40:09;13.70;;;10.20;;
3343;SDS011;1685;53.104;8.228;2023-05-10T07:42:36;13.93;;;9.13;;
3343;SDS011;1685;53.104;8.228;2023-05-10T07:45:05;11.90;;;8.50;;
3343;SDS011;1685;53.104;8.228;2023-05-10T07:47:32;11.87;;;8.27;;
3343;SDS011;1685;53.104;8.228;2023-05-10T07:50:00;9.50;;;7.80;;
3343;SDS011;1685;53.104;8.228;2023-05-10T07:52:27;10.97;;;9.07;;
3343;SDS011;1685;53.104;8.228;2023-05-10T07:54:54;9.77;;;8.00;;
3343;SDS011;1685;53.104;8.228;2023-05-10T07:57:21;8.50;;;7.60;;
3343;SDS011;1685;53.104;8.228;2023-05-10T07:59:49;10.27;;;8.37;;
3343;SDS011;1685;53.104;8.228;2023-05-10T08:02:17;9.70;;;7.47;;
3343;SDS011;1685;53.104;8.228;2023-05-10T08:04:44;11.50;;;7.63;;
3343;SDS011;1685;53.104;8.228;2023-05-10T08:07:11;8.67;;;6.87;;
3343;SDS011;1685;53.104;8.228;2023-05-10T08:09:38;7.33;;;6.23;;
3343;SDS011;1685;53.104;8.228;2023-05-10T08:12:05;13.90;;;6.33;;
3343;SDS011;1685;53.104;8.228;2023-05-10T08:14:32;9.90;;;6.57;;
3343;SDS011;1685;53.104;8.228;2023-05-10T08:17:01;6.07;;;5.47;;
3343;SDS011;1685;53.104;8.228;2023-05-10T08:19:29;9.83;;;6.80;;
3343;SDS011;1685;53.104;8.228;2023-05-10T08:21:57;7.33;;;6.60;;
3343;SDS011;1685;53.104;8.228;2023-05-10T08:24:24;6.53;;;5.93;;
3343;SDS011;1685;53.104;8.228;2023-05-10T08:26:51;7.13;;;6.10;;
3343;SDS011;1685;53.104;8.228;2023-05-10T08:29:18;6.70;;;5.93;;
3343;SDS011;1685;53.104;8.228;2023-05-10T08:31:45;5.80;;;5.20;;
3343;SDS011;1685;53.104;8.228;2023-05-10T08:34:12;6.90;;;5.80;;
3343;SDS011;1685;53.104;8.228;2023-05-10T08:36:41;6.83;;;6.13;;
3343;SDS011;1685;53.104;8.228;2023-05-10T08:39:10;6.37;;;5.77;;
3343;SDS011;1685;53.104;8.228;2023-05-10T08:41:37;7.20;;;4.80;;
3343;SDS011;1685;53.104;8.228;2023-05-10T08:44:05;11.30;;;6.63;;
3343;SDS011;1685;53.104;8.228;2023-05-10T08:46:34;8.50;;;6.10;;
3343;SDS011;1685;53.104;8.228;2023-05-10T08:49:05;7.20;;;6.50;;
3343;SDS011;1685;53.104;8.228;2023-05-10T08:51:35;8.27;;;5.80;;
3343;SDS011;1685;53.104;8.228;2023-05-10T08:54:05;8.33;;;5.73;;
3343;SDS011;1685;53.104;8.228;2023-05-10T08:56:33;6.70;;;6.00;;
3343;SDS011;1685;53.104;8.228;2023-05-10T08:59:00;9.60;;;5.93;;
3343;SDS011;1685;53.104;8.228;2023-05-10T09:01:27;6.77;;;6.13;;
3343;SDS011;1685;53.104;8.228;2023-05-10T09:03:54;10.10;;;6.17;;
3343;SDS011;1685;53.104;8.228;2023-05-10T09:06:22;7.47;;;6.77;;
3343;SDS011;1685;53.104;8.228;2023-05-10T09:08:49;7.00;;;5.47;;
3343;SDS011;1685;53.104;8.228;2023-05-10T09:11:17;6.93;;;5.50;;
3343;SDS011;1685;53.104;8.228;2023-05-10T09:13:45;10.83;;;6.23;;
3343;SDS011;1685;53.104;8.228;2023-05-10T09:16:14;10.90;;;6.27;;
3343;SDS011;1685;53.104;8.228;2023-05-10T09:18:41;8.07;;;6.27;;
3343;SDS011;1685;53.104;8.228;2023-05-10T09:21:08;7.27;;;6.33;;
3343;SDS011;1685;53.104;8.228;2023-05-10T09:23:36;8.30;;;6.30;;
3343;SDS011;1685;53.104;8.228;2023-05-10T09:26:03;13.30;;;6.07;;
3343;SDS011;1685;53.104;8.228;2023-05-10T09:28:49;7.97;;;5.87;;
3343;SDS011;1685;53.104;8.228;2023-05-10T09:31:17;7.67;;;5.90;;
3343;SDS011;1685;53.104;8.228;2023-05-10T09:33:44;7.70;;;6.10;;
3343;SDS011;1685;53.104;8.228;2023-05-10T09:36:12;6.37;;;5.50;;
3343;SDS011;1685;53.104;8.228;2023-05-10T09:38:45;8.93;;;5.70;;
3343;SDS011;1685;53.104;8.228;2023-05-10T09:41:17;5.70;;;4.87;;
3343;SDS011;1685;53.104;8.228;2023-05-10T09:43:46;6.50;;;5.23;;
3343;SDS011;1685;53.104;8.228;2023-05-10T09:46:13;5.70;;;5.20;;
3343;SDS011;1685;53.104;8.228;2023-05-10T09:48:41;7.80;;;4.83;;
3343;SDS011;1685;53.104;8.228;2023-05-10T09:51:09;6.60;;;5.70;;
3343;SDS011;1685;53.104;8.228;2023-05-10T09:53:36;6.10;;;5.50;;
3343;SDS011;1685;53.104;8.228;2023-05-10T09:56:03;8.73;;;6.03;;
3343;SDS011;1685;53.104;8.228;2023-05-10T09:58:30;9.00;;;6.00;;
3343;SDS011;1685;53.104;8.228;2023-05-10T10:00:59;8.00;;;6.00;;
3343;SDS011;1685;53.104;8.228;2023-05-10T10:03:26;7.07;;;5.83;;
3343;SDS011;1685;53.104;8.228;2023-05-10T10:05:54;5.40;;;4.07;;
3343;SDS011;1685;53.104;8.228;2023-05-10T10:08:21;2.50;;;2.23;;
3343;SDS011;1685;53.104;8.228;2023-05-10T10:10:49;2.40;;;1.53;;
3343;SDS011;1685;53.104;8.228;2023-05-10T10:13:16;1.23;;;1.23;;
3343;SDS011;1685;53.104;8.228;2023-05-10T10:15:43;1.80;;;1.27;;
3343;SDS011;1685;53.104;8.228;2023-05-10T10:18:13;1.40;;;1.40;;
3343;SDS011;1685;53.104;8.228;2023-05-10T10:20:40;2.27;;;2.17;;
3343;SDS011;1685;53.104;8.228;2023-05-10T10:23:08;1.73;;;1.63;;
3343;SDS011;1685;53.104;8.228;2023-05-10T10:25:35;2.03;;;1.93;;
3343;SDS011;1685;53.104;8.228;2023-05-10T10:28:08;2.77;;;2.07;;
3343;SDS011;1685;53.104;8.228;2023-05-10T10:30:47;1.93;;;1.67;;
3343;SDS011;1685;53.104;8.228;2023-05-10T10:33:39;1.87;;;1.77;;
3343;SDS011;1685;53.104;8.228;2023-05-10T10:36:15;4.00;;;1.40;;
3343;SDS011;1685;53.104;8.228;2023-05-10T10:38:55;4.37;;;1.23;;
3343;SDS011;1685;53.104;8.228;2023-05-10T10:41:28;2.40;;;1.20;;
3343;SDS011;1685;53.104;8.228;2023-05-10T10:46:58;0.80;;;0.80;;
3343;SDS011;1685;53.104;8.228;2023-05-10T10:49:30;5.80;;;0.80;;
3343;SDS011;1685;53.104;8.228;2023-05-10T10:54:52;0.70;;;0.70;;
3343;SDS011;1685;53.104;8.228;2023-05-10T10:57:20;1.23;;;0.67;;
3343;SDS011;1685;53.104;8.228;2023-05-10T10:59:47;3.73;;;0.80;;
3343;SDS011;1685;53.104;8.228;2023-05-10T11:05:14;0.67;;;0.67;;
3343;SDS011;1685;53.104;8.228;2023-05-10T11:07:53;0.70;;;0.70;;
3343;SDS011;1685;53.104;8.228;2023-05-10T11:10:21;0.70;;;0.70;;
3343;SDS011;1685;53.104;8.228;2023-05-10T11:12:51;5.83;;;0.77;;
3343;SDS011;1685;53.104;8.228;2023-05-10T11:15:20;0.90;;;0.90;;
3343;SDS011;1685;53.104;8.228;2023-05-10T11:17:55;0.97;;;0.97;;
3343;SDS011;1685;53.104;8.228;2023-05-10T11:20:24;1.17;;;1.10;;
3343;SDS011;1685;53.104;8.228;2023-05-10T11:22:58;1.20;;;1.20;;
3343;SDS011;1685;53.104;8.228;2023-05-10T11:25:40;1.43;;;1.40;;
3343;SDS011;1685;53.104;8.228;2023-05-10T11:28:08;1.93;;;1.90;;
3343;SDS011;1685;53.104;8.228;2023-05-10T11:30:35;3.00;;;2.57;;
3343;SDS011;1685;53.104;8.228;2023-05-10T11:33:03;3.53;;;3.33;;
3343;SDS011;1685;53.104;8.228;2023-05-10T11:35:31;4.63;;;4.10;;
3343;SDS011;1685;53.104;8.228;2023-05-10T11:38:04;5.33;;;4.80;;
3343;SDS011;1685;53.104;8.228;2023-05-10T11:40:32;9.20;;;5.37;;
3343;SDS011;1685;53.104;8.228;2023-05-10T11:42:59;6.80;;;5.73;;
3343;SDS011;1685;53.104;8.228;2023-05-10T11:45:26;9.40;;;7.07;;
3343;SDS011;1685;53.104;8.228;2023-05-10T11:47:54;7.97;;;7.17;;
3343;SDS011;1685;53.104;8.228;2023-05-10T11:50:21;8.87;;;7.70;;
3343;SDS011;1685;53.104;8.228;2023-05-10T11:52:51;11.10;;;8.67;;
3343;SDS011;1685;53.104;8.228;2023-05-10T11:55:18;11.10;;;8.00;;
3343;SDS011;1685;53.104;8.228;2023-05-10T11:57:45;13.40;;;9.07;;
3343;SDS011;1685;53.104;8.228;2023-05-10T12:00:13;10.80;;;8.90;;
3343;SDS011;1685;53.104;8.228;2023-05-10T12:02:40;13.93;;;10.13;;
3343;SDS011;1685;53.104;8.228;2023-05-10T12:05:07;15.80;;;9.03;;
3343;SDS011;1685;53.104;8.228;2023-05-10T12:07:35;10.53;;;9.17;;
3343;SDS011;1685;53.104;8.228;2023-05-10T12:10:04;10.57;;;9.40;;
3343;SDS011;1685;53.104;8.228;2023-05-10T12:12:36;11.20;;;9.20;;
3343;SDS011;1685;53.104;8.228;2023-05-10T12:15:04;10.70;;;9.43;;
3343;SDS011;1685;53.104;8.228;2023-05-10T12:17:32;10.77;;;8.60;;
3343;SDS011;1685;53.104;8.228;2023-05-10T12:20:12;10.23;;;9.13;;
3343;SDS011;1685;53.104;8.228;2023-05-10T12:22:39;10.80;;;8.40;;
3343;SDS011;1685;53.104;8.228;2023-05-10T12:25:09;9.30;;;8.40;;
3343;SDS011;1685;53.104;8.228;2023-05-10T12:27:36;7.80;;;7.10;;
3343;SDS011;1685;53.104;8.228;2023-05-10T12:30:03;8.67;;;7.13;;
3343;SDS011;1685;53.104;8.228;2023-05-10T12:32:37;8.23;;;7.33;;
3343;SDS011;1685;53.104;8.228;2023-05-10T12:35:06;7.77;;;7.07;;
3343;SDS011;1685;53.104;8.228;2023-05-10T12:37:34;8.33;;;7.57;;
3343;SDS011;1685;53.104;8.228;2023-05-10T12:40:05;7.90;;;7.10;;
3343;SDS011;1685;53.104;8.228;2023-05-10T12:42:35;7.10;;;6.40;;
3343;SDS011;1685;53.104;8.228;2023-05-10T12:45:03;8.73;;;7.07;;
3343;SDS011;1685;53.104;8.228;2023-05-10T12:47:30;10.00;;;8.20;;
3343;SDS011;1685;53.104;8.228;2023-05-10T12:49:58;7.50;;;6.30;;
3343;SDS011;1685;53.104;8.228;2023-05-10T12:52:25;8.10;;;7.33;;
3343;SDS011;1685;53.104;8.228;2023-05-10T12:54:52;8.63;;;7.40;;
3343;SDS011;1685;53.104;8.228;2023-05-10T12:57:19;7.13;;;6.40;;
3343;SDS011;1685;53.104;8.228;2023-05-10T12:59:48;7.73;;;7.07;;
3343;SDS011;1685;53.104;8.228;2023-05-10T13:02:15;6.80;;;6.20;;
3343;SDS011;1685;53.104;8.228;2023-05-10T13:04:43;6.60;;;6.00;;
3343;SDS011;1685;53.104;8.228;2023-05-10T13:07:11;6.30;;;5.70;;
3343;SDS011;1685;53.104;8.228;2023-05-10T13:09:38;6.43;;;5.87;;
3343;SDS011;1685;53.104;8.228;2023-05-10T13:12:05;6.93;;;6.23;;
3343;SDS011;1685;53.104;8.228;2023-05-10T13:14:33;6.03;;;5.43;;
3343;SDS011;1685;53.104;8.228;2023-05-10T13:17:01;5.63;;;5.13;;
3343;SDS011;1685;53.104;8.228;2023-05-10T13:19:28;5.60;;;5.10;;
3343;SDS011;1685;53.104;8.228;2023-05-10T13:21:55;4.60;;;4.20;;
3343;SDS011;1685;53.104;8.228;2023-05-10T13:24:22;5.40;;;5.00;;
3343;SDS011;1685;53.104;8.228;2023-05-10T13:26:50;5.10;;;4.77;;
3343;SDS011;1685;53.104;8.228;2023-05-10T13:29:17;7.30;;;4.73;;
3343;SDS011;1685;53.104;8.228;2023-05-10T13:31:45;11.00;;;5.70;;
3343;SDS011;1685;53.104;8.228;2023-05-10T13:34:14;4.97;;;4.57;;
3343;SDS011;1685;53.104;8.228;2023-05-10T13:36:41;4.30;;;3.93;;
3343;SDS011;1685;53.104;8.228;2023-05-10T13:39:08;3.10;;;2.90;;
3343;SDS011;1685;53.104;8.228;2023-05-10T13:41:35;3.60;;;3.30;;
3343;SDS011;1685;53.104;8.228;2023-05-10T13:44:03;4.13;;;3.00;;
3343;SDS011;1685;53.104;8.228;2023-05-10T13:46:30;2.10;;;2.00;;
3343;SDS011;1685;53.104;8.228;2023-05-10T13:48:57;2.23;;;2.13;;
3343;SDS011;1685;53.104;8.228;2023-05-10T13:51:25;2.27;;;2.17;;
3343;SDS011;1685;53.104;8.228;2023-05-10T13:53:52;2.90;;;2.37;;
3343;SDS011;1685;53.104;8.228;2023-05-10T13:56:19;2.80;;;2.70;;
3343;SDS011;1685;53.104;8.228;2023-05-10T13:58:46;3.40;;;3.30;;
3343;SDS011;1685;53.104;8.228;2023-05-10T14:01:13;3.10;;;2.90;;
3343;SDS011;1685;53.104;8.228;2023-05-10T14:03:40;3.63;;;3.23;;
3343;SDS011;1685;53.104;8.228;2023-05-10T14:06:08;4.30;;;4.00;;
3343;SDS011;1685;53.104;8.228;2023-05-10T14:08:37;3.67;;;3.47;;
3343;SDS011;1685;53.104;8.228;2023-05-10T14:11:03;4.23;;;3.60;;
3343;SDS011;1685;53.104;8.228;2023-05-10T14:13:30;3.10;;;2.90;;
3343;SDS011;1685;53.104;8.228;2023-05-10T14:15:58;2.80;;;2.60;;
3343;SDS011;1685;53.104;8.228;2023-05-10T14:18:25;2.90;;;2.70;;
3343;SDS011;1685;53.104;8.228;2023-05-10T14:20:53;1.97;;;1.87;;
3343;SDS011;1685;53.104;8.228;2023-05-10T14:23:21;3.30;;;1.90;;
3343;SDS011;1685;53.104;8.228;2023-05-10T14:25:51;2.13;;;1.90;;
3343;SDS011;1685;53.104;8.228;2023-05-10T14:28:18;2.23;;;1.67;;
3343;SDS011;1685;53.104;8.228;2023-05-10T14:30:45;2.27;;;1.97;;
3343;SDS011;1685;53.104;8.228;2023-05-10T14:33:12;3.10;;;1.77;;
3343;SDS011;1685;53.104;8.228;2023-05-10T14:35:40;2.10;;;2.00;;
3343;SDS011;1685;53.104;8.228;2023-05-10T14:38:07;2.30;;;2.00;;
3343;SDS011;1685;53.104;8.228;2023-05-10T14:40:35;2.73;;;2.53;;
3343;SDS011;1685;53.104;8.228;2023-05-10T14:43:04;2.43;;;2.33;;
3343;SDS011;1685;53.104;8.228;2023-05-10T14:45:31;3.07;;;2.80;;
3343;SDS011;1685;53.104;8.228;2023-05-10T14:47:58;3.10;;;2.40;;
3343;SDS011;1685;53.104;8.228;2023-05-10T14:50:26;2.60;;;2.50;;
3343;SDS011;1685;53.104;8.228;2023-05-10T14:52:53;2.00;;;1.90;;
3343;SDS011;1685;53.104;8.228;2023-05-10T14:55:20;1.80;;;1.73;;
3343;SDS011;1685;53.104;8.228;2023-05-10T14:57:47;3.70;;;2.37;;
3343;SDS011;1685;53.104;8.228;2023-05-10T15:00:17;2.20;;;2.10;;
3343;SDS011;1685;53.104;8.228;2023-05-10T15:02:44;6.63;;;2.23;;
3343;SDS011;1685;53.104;8.228;2023-05-10T15:05:12;2.03;;;1.93;;
3343;SDS011;1685;53.104;8.228;2023-05-10T15:07:40;2.50;;;1.93;;
3343;SDS011;1685;53.104;8.228;2023-05-10T15:10:08;2.50;;;1.60;;
3343;SDS011;1685;53.104;8.228;2023-05-10T15:12:36;2.30;;;1.30;;
3343;SDS011;1685;53.104;8.228;2023-05-10T15:15:03;1.60;;;1.50;;
3343;SDS011;1685;53.104;8.228;2023-05-10T15:17:32;3.40;;;1.80;;
3343;SDS011;1685;53.104;8.228;2023-05-10T15:19:59;2.10;;;2.00;;
3343;SDS011;1685;53.104;8.228;2023-05-10T15:22:28;2.00;;;1.90;;